Time;durP1;ratioP1;P1;durP2;ratioP2;P2;SDS_P1;SDS_P2;PMS_P1;PMS_P2;Temp;Humidity;BMP_temperature;BMP_pressure;BME280_temperature;BME280_humidity;BME280_pressure;Samples;Min_cycle;Max_cycle;Signal;HPM_P1;HPM_P2
2023/02/08 00:02:10;;;;;;;;;;;;;;;20.26;42.84;103731.59;5043027;28;2733;-62
2023/02/08 00:04:36;;;;;;;;;;;;;;;20.24;42.96;103729.28;5044761;28;2966;-63
2023/02/08 00:07:03;;;;;;;;;;;;;;;20.24;42.99;103734.28;5051157;28;3137;-63
2023/02/08 00:09:29;;;;;;;;;;;;;;;20.24;43.02;103734.28;5048505;28;2945;-62
2023/02/08 00:11:55;;;;;;;;;;;;;;;20.23;42.97;103727.00;5051112;28;2947;-63
2023/02/08 00:14:22;;;;;;;;;;;;;;;20.23;42.83;103724.13;5053900;28;2717;-63
2023/02/08 00:16:48;;;;;;;;;;;;;;;20.24;42.88;103731.38;5049914;28;2872;-63
2023/02/08 00:19:14;;;;;;;;;;;;;;;20.23;42.89;103727.75;5053630;28;2738;-62
2023/02/08 00:21:41;;;;;;;;;;;;;;;20.24;43.08;103722.75;5054881;28;2595;-63
2023/02/08 00:24:07;;;;;;;;;;;;;;;20.26;42.97;103731.59;5054296;28;2928;-63
2023/02/08 00:26:34;;;;;;;;;;;;;;;20.24;42.91;103728.50;5050908;28;2819;-62
2023/02/08 00:29:00;;;;;;;;;;;;;;;20.24;43.01;103722.75;5054763;28;2786;-63
2023/02/08 00:31:26;;;;;;;;;;;;;;;20.22;42.82;103725.44;5051792;28;2769;-63
2023/02/08 00:33:53;;;;;;;;;;;;;;;20.21;42.88;103723.91;5053407;28;2846;-63
2023/02/08 00:36:19;;;;;;;;;;;;;;;20.20;42.78;103725.25;5053763;28;2523;-63
2023/02/08 00:38:45;;;;;;;;;;;;;;;20.18;43.01;103722.19;5050899;28;2868;-63
2023/02/08 00:41:12;;;;;;;;;;;;;;;20.18;42.85;103722.97;5050623;28;2904;-63
2023/02/08 00:43:38;;;;;;;;;;;;;;;20.19;42.95;103720.84;5051003;28;2838;-63
2023/02/08 00:46:06;;;;;;;;;;;;;;;20.19;42.61;103721.63;5051976;28;2816;-62
2023/02/08 00:48:33;;;;;;;;;;;;;;;20.19;42.90;103717.97;5048277;28;2908;-63
2023/02/08 00:51:00;;;;;;;;;;;;;;;20.19;43.00;103718.75;5033167;28;2929;-63
2023/02/08 00:53:26;;;;;;;;;;;;;;;20.19;43.08;103721.63;5046049;28;2893;-63
2023/02/08 00:55:53;;;;;;;;;;;;;;;20.21;42.88;103721.81;5051357;28;2927;-62
2023/02/08 00:58:19;;;;;;;;;;;;;;;20.20;42.78;103726.03;5051171;28;3229;-63
2023/02/08 01:00:46;;;;;;;;;;;;;;;20.21;42.80;103724.69;5068465;28;3038;-63
2023/02/08 01:03:12;;;;;;;;;;;;;;;20.20;42.83;103728.13;5052468;28;2735;-63
2023/02/08 01:05:38;;;;;;;;;;;;;;;20.18;42.71;103730.81;5048750;28;2918;-63
2023/02/08 01:08:05;;;;;;;;;;;;;;;20.18;42.90;103725.06;5054137;28;3122;-63
2023/02/08 01:10:31;;;;;;;;;;;;;;;20.16;42.98;103724.88;5054737;28;3068;-63
2023/02/08 01:12:57;;;;;;;;;;;;;;;20.16;42.90;103716.25;5052486;28;2553;-63
2023/02/08 01:15:24;;;;;;;;;;;;;;;20.16;43.04;103713.38;5053814;28;2836;-63
2023/02/08 01:17:53;;;;;;;;;;;;;;;20.16;42.89;103713.38;5060117;28;3146;-63
2023/02/08 01:20:20;;;;;;;;;;;;;;;20.17;42.89;103717.78;5056463;28;2833;-63
2023/02/08 01:22:46;;;;;;;;;;;;;;;20.17;42.90;103717.78;5053151;28;2974;-63
2023/02/08 01:25:13;;;;;;;;;;;;;;;20.19;42.77;103715.09;5057366;28;2947;-63
2023/02/08 01:27:39;;;;;;;;;;;;;;;20.17;42.84;103723.53;5054087;28;2793;-63
2023/02/08 01:30:05;;;;;;;;;;;;;;;20.17;42.84;103714.91;5053021;28;2792;-63
2023/02/08 01:32:33;;;;;;;;;;;;;;;20.17;42.86;103712.03;5050769;28;2725;-63
2023/02/08 01:35:00;;;;;;;;;;;;;;;20.15;42.91;103714.72;5055443;28;2808;-63
2023/02/08 01:37:26;;;;;;;;;;;;;;;20.14;42.87;103713.97;5059867;28;2857;-63
2023/02/08 01:39:53;;;;;;;;;;;;;;;20.12;42.88;103708.00;5061048;28;3143;-63
2023/02/08 01:42:19;;;;;;;;;;;;;;;20.13;42.88;103711.66;5054222;28;2863;-62
2023/02/08 01:45:05;;;;;;;;;;;;;;;20.11;42.96;103708.59;5067995;28;2810;-62
2023/02/08 01:47:31;;;;;;;;;;;;;;;20.13;42.72;103711.66;5051717;28;2940;-62
2023/02/08 01:49:57;;;;;;;;;;;;;;;20.13;42.85;103705.91;5051031;28;2290;-62
2023/02/08 01:52:24;;;;;;;;;;;;;;;20.14;42.93;103708.22;5053191;28;3015;-62
2023/02/08 01:54:55;;;;;;;;;;;;;;;20.15;42.81;103711.84;5050426;28;2573;-62
2023/02/08 01:57:22;;;;;;;;;;;;;;;20.15;42.76;103709.72;5036353;28;2876;-62
2023/02/08 01:59:58;;;;;;;;;;;;;;;20.15;42.92;103714.72;5064344;28;2812;-62
2023/02/08 02:02:25;;;;;;;;;;;;;;;20.16;42.71;103710.47;5052531;28;2836;-63
2023/02/08 02:04:51;;;;;;;;;;;;;;;20.15;42.90;103714.72;5057185;28;2712;-62
2023/02/08 02:07:19;;;;;;;;;;;;;;;20.14;42.96;103707.44;5036052;28;2679;-62
2023/02/08 02:09:46;;;;;;;;;;;;;;;20.13;43.00;103705.91;5041401;28;3119;-62
2023/02/08 02:12:13;;;;;;;;;;;;;;;20.13;42.89;103705.91;5043334;28;2762;-62
2023/02/08 02:14:39;;;;;;;;;;;;;;;20.08;42.81;103699.75;5069110;28;3022;-62
2023/02/08 02:17:05;;;;;;;;;;;;;;;20.09;42.79;103707.06;5053373;28;2901;-62
2023/02/08 02:19:47;;;;;;;;;;;;;;;20.09;42.76;103698.44;5044366;28;3012;-63
2023/02/08 02:22:31;;;;;;;;;;;;;;;20.09;42.83;103707.06;5057093;28;2909;-63
2023/02/08 02:24:58;;;;;;;;;;;;;;;20.11;42.69;103723.72;5053314;28;2897;-62
2023/02/08 02:27:28;;;;;;;;;;;;;;;20.11;42.76;103708.59;5057710;28;2544;-62
2023/02/08 02:30:11;;;;;;;;;;;;;;;20.10;42.91;103713.56;5046907;28;2987;-62
2023/02/08 02:32:39;;;;;;;;;;;;;;;20.11;43.03;103729.47;5055598;28;1617;-63
2023/02/08 02:50:40;;;;;;;;;;;;;;;20.07;42.84;103723.38;5046880;28;2845;-62
2023/02/08 02:53:10;;;;;;;;;;;;;;;20.06;42.73;103725.47;5020661;28;2960;-62
2023/02/08 02:55:39;;;;;;;;;;;;;;;20.07;42.77;103727.00;5055093;28;2982;-62
2023/02/08 02:58:05;;;;;;;;;;;;;;;20.08;42.80;103717.03;5057248;28;2855;-62
2023/02/08 03:00:31;;;;;;;;;;;;;;;20.09;42.87;103723.56;5062234;28;2850;-62
2023/02/08 03:02:58;;;;;;;;;;;;;;;20.09;42.94;103717.81;5057642;28;2906;-62
2023/02/08 03:05:24;;;;;;;;;;;;;;;20.08;42.78;103717.03;5050267;28;2921;-62
2023/02/08 03:07:55;;;;;;;;;;;;;;;20.09;42.79;103720.69;5051600;28;2887;-62
2023/02/08 03:10:40;;;;;;;;;;;;;;;20.07;42.89;103715.50;5043391;28;2877;-63
2023/02/08 03:13:22;;;;;;;;;;;;;;;20.07;42.83;103721.25;5048811;28;2842;-62
2023/02/08 03:15:57;;;;;;;;;;;;;;;20.05;42.92;103718.19;5055152;28;3216;-62
2023/02/08 03:18:33;;;;;;;;;;;;;;;20.05;42.84;103712.44;5059629;28;2677;-62
2023/02/08 03:21:02;;;;;;;;;;;;;;;20.03;42.85;103714.34;5052630;28;1771;-62
2023/02/08 03:23:40;;;;;;;;;;;;;;;20.05;42.81;103711.66;5053433;28;2828;-62
2023/02/08 03:26:09;;;;;;;;;;;;;;;20.03;42.83;103706.50;5053585;28;3197;-62
2023/02/08 03:28:55;;;;;;;;;;;;;;;20.05;42.91;103712.44;5054737;28;2693;-62
2023/02/08 03:31:41;;;;;;;;;;;;;;;20.05;42.91;103723.19;5053456;28;2942;-62
2023/02/08 03:34:11;;;;;;;;;;;;;;;20.06;42.96;103722.59;5049937;28;2761;-62
2023/02/08 03:36:38;;;;;;;;;;;;;;;20.06;43.04;103719.72;5048677;28;2834;-62
2023/02/08 04:11:04;;;;;;;;;;;;;;;20.06;42.96;103728.34;5021001;28;2893;-62
2023/02/08 04:13:30;;;;;;;;;;;;;;;20.05;42.85;103723.19;5036304;28;2813;-62
2023/02/08 04:15:57;;;;;;;;;;;;;;;20.04;42.84;103719.53;5057723;28;1910;-63
2023/02/08 04:18:23;;;;;;;;;;;;;;;20.03;42.83;103717.22;5053819;28;2781;-63
2023/02/08 04:20:50;;;;;;;;;;;;;;;20.02;42.80;103707.84;5052532;28;2781;-63
2023/02/08 04:23:16;;;;;;;;;;;;;;;20.01;42.77;103712.06;5051483;28;2651;-63
2023/02/08 04:25:42;;;;;;;;;;;;;;;20.02;42.91;103710.72;5052657;28;3019;-63
2023/02/08 04:28:09;;;;;;;;;;;;;;;20.02;42.80;103712.81;5054845;28;2585;-62
2023/02/08 04:30:35;;;;;;;;;;;;;;;20.04;42.72;103710.13;5052655;28;2962;-62
2023/02/08 04:33:02;;;;;;;;;;;;;;;20.02;42.85;103727.97;5051716;28;2893;-63
2023/02/08 04:35:29;;;;;;;;;;;;;;;20.03;42.83;103720.13;5051299;28;3076;-62
2023/02/08 04:37:55;;;;;;;;;;;;;;;20.04;42.97;103716.66;5055631;28;3057;-62
2023/02/08 04:40:21;;;;;;;;;;;;;;;20.04;43.12;103710.91;5048232;28;2824;-62
2023/02/08 04:42:48;;;;;;;;;;;;;;;20.06;42.96;103716.06;5055815;28;2855;-63
2023/02/08 04:45:14;;;;;;;;;;;;;;;20.06;42.95;103713.94;5049923;28;2576;-62
2023/02/08 04:47:40;;;;;;;;;;;;;;;20.07;42.95;103717.63;5054186;28;2477;-62
2023/02/08 04:50:07;;;;;;;;;;;;;;;20.07;42.99;103714.75;5049565;28;2790;-63
2023/02/08 04:52:33;;;;;;;;;;;;;;;20.07;43.00;103721.25;5054242;28;3233;-63
2023/02/08 04:54:59;;;;;;;;;;;;;;;20.07;42.82;103721.25;5053292;28;2899;-62
2023/02/08 04:57:26;;;;;;;;;;;;;;;20.08;42.63;103722.00;5052695;28;2698;-62
2023/02/08 04:59:52;;;;;;;;;;;;;;;20.05;42.95;103720.31;5053567;28;2886;-63
2023/02/08 05:02:18;;;;;;;;;;;;;;;20.06;42.81;103719.72;5053118;28;2822;-63
2023/02/08 05:04:45;;;;;;;;;;;;;;;20.06;42.86;103725.47;5044939;28;3287;-63
2023/02/08 05:07:11;;;;;;;;;;;;;;;20.05;42.70;103720.31;5049466;28;3175;-62
2023/02/08 05:09:43;;;;;;;;;;;;;;;20.04;42.79;103716.66;5041177;28;2847;-63
2023/02/08 05:12:10;;;;;;;;;;;;;;;20.04;42.82;103715.88;5048635;28;3155;-63
2023/02/08 05:14:36;;;;;;;;;;;;;;;20.04;42.77;103715.88;5052550;28;2915;-62
2023/02/08 05:17:02;;;;;;;;;;;;;;;20.03;42.73;103715.13;5054319;28;2544;-62
2023/02/08 05:19:29;;;;;;;;;;;;;;;20.03;42.65;103717.22;5049086;28;3011;-63
2023/02/08 05:21:55;;;;;;;;;;;;;;;20.03;42.72;103718.00;5042763;28;2813;-63
2023/02/08 05:24:21;;;;;;;;;;;;;;;20.04;42.65;103710.91;5046120;28;2888;-62
2023/02/08 05:26:48;;;;;;;;;;;;;;;20.04;42.75;103710.91;5045841;28;2915;-62
2023/02/08 05:29:14;;;;;;;;;;;;;;;20.05;42.65;103720.31;5050647;28;2843;-62
2023/02/08 05:31:40;;;;;;;;;;;;;;;20.05;42.66;103718.19;5044516;28;3472;-61
2023/02/08 05:34:07;;;;;;;;;;;;;;;20.06;42.80;103713.94;5047075;28;2853;-62
2023/02/08 05:36:33;;;;;;;;;;;;;;;20.05;42.65;103723.94;5050515;28;2798;-62
2023/02/08 05:39:00;;;;;;;;;;;;;;;20.06;42.78;103724.69;5045906;28;2947;-61
2023/02/08 05:41:26;;;;;;;;;;;;;;;20.04;42.77;103716.66;5049649;28;2936;-62
2023/02/08 05:43:52;;;;;;;;;;;;;;;20.04;42.72;103722.41;5049279;28;2942;-62
2023/02/08 05:46:19;;;;;;;;;;;;;;;20.04;42.74;103728.19;5040230;28;3276;-62
2023/02/08 05:48:45;;;;;;;;;;;;;;;20.02;42.75;103725.09;5044640;28;3149;-62
2023/02/08 05:51:11;;;;;;;;;;;;;;;20.03;42.61;103720.13;5049274;28;3014;-62
2023/02/08 05:53:38;;;;;;;;;;;;;;;20.00;42.53;103727.03;5052574;28;3115;-61
2023/02/08 05:56:04;;;;;;;;;;;;;;;19.99;42.53;103726.25;5052684;28;2742;-60
2023/02/08 05:58:31;;;;;;;;;;;;;;;20.11;42.75;103728.72;5061658;28;2895;-64
2023/02/08 06:00:57;;;;;;;;;;;;;;;20.11;43.07;103729.47;5049276;28;2670;-74
2023/02/08 06:03:24;;;;;;;;;;;;;;;20.14;43.02;103724.72;5047623;28;3299;-67
2023/02/08 06:05:50;;;;;;;;;;;;;;;19.82;41.75;103737.59;5053048;28;2896;-68
2023/02/08 06:08:17;;;;;;;;;;;;;;;19.45;40.34;103737.72;5054184;28;2907;-66
2023/02/08 06:10:46;;;;;;;;;;;;;;;19.63;41.71;103737.91;5046897;28;3051;-67
2023/02/08 06:13:14;;;;;;;;;;;;;;;19.72;41.87;103745.22;5046478;28;3460;-68
2023/02/08 06:15:41;;;;;;;;;;;;;;;19.83;41.22;103744.84;5050744;28;2897;-68
2023/02/08 06:18:08;;;;;;;;;;;;;;;19.91;41.71;103747.75;5053210;28;1914;-67
2023/02/08 06:20:34;;;;;;;;;;;;;;;19.96;41.57;103755.41;5051091;28;2905;-66
2023/02/08 06:23:00;;;;;;;;;;;;;;;19.98;41.84;103744.09;5054224;28;2773;-67
2023/02/08 06:25:26;;;;;;;;;;;;;;;19.99;42.23;103739.88;5054579;28;1631;-66
2023/02/08 06:27:53;;;;;;;;;;;;;;;19.98;42.39;103747.72;5055270;28;2676;-68
2023/02/08 06:30:22;;;;;;;;;;;;;;;20.00;42.37;103750.03;5056152;28;2628;-67
2023/02/08 06:32:48;;;;;;;;;;;;;;;20.00;42.38;103744.28;5057610;28;1977;-67
2023/02/08 06:35:15;;;;;;;;;;;;;;;19.99;42.78;103742.75;5052636;28;2625;-67
2023/02/08 06:37:41;;;;;;;;;;;;;;;19.99;42.80;103760.00;5047035;28;2341;-67
2023/02/08 06:40:17;;;;;;;;;;;;;;;19.98;42.97;103753.47;5051473;28;2784;-67
2023/02/08 06:42:43;;;;;;;;;;;;;;;19.99;43.06;103757.13;5055537;28;1733;-66
2023/02/08 06:45:09;;;;;;;;;;;;;;;19.99;43.17;103760.75;5052897;28;2679;-66
2023/02/08 06:47:38;;;;;;;;;;;;;;;19.99;43.00;103757.13;5053781;28;2746;-68
2023/02/08 06:50:05;;;;;;;;;;;;;;;20.02;43.21;103767.47;5049520;28;2816;-65
2023/02/08 06:52:31;;;;;;;;;;;;;;;20.00;43.53;103755.78;5055353;28;1765;-65
2023/02/08 06:54:58;;;;;;;;;;;;;;;19.99;43.69;103757.13;5050478;28;2802;-65
2023/02/08 06:57:24;;;;;;;;;;;;;;;20.01;43.41;103763.06;5048234;28;2757;-65
2023/02/08 06:59:50;;;;;;;;;;;;;;;20.02;43.48;103771.13;5059103;28;2497;-65
2023/02/08 07:02:17;;;;;;;;;;;;;;;20.05;43.43;103769.97;5056545;28;1671;-65
2023/02/08 07:04:44;;;;;;;;;;;;;;;20.05;43.46;103774.97;5055065;28;2952;-65
2023/02/08 07:07:11;;;;;;;;;;;;;;;20.05;43.58;103769.97;5047429;28;2621;-65
2023/02/08 07:09:37;;;;;;;;;;;;;;;20.05;43.60;103775.72;5055537;28;1639;-65
2023/02/08 07:12:04;;;;;;;;;;;;;;;20.04;43.70;103771.31;5048916;28;2830;-65
2023/02/08 07:14:34;;;;;;;;;;;;;;;20.04;43.67;103762.69;5050416;28;2415;-65
2023/02/08 07:17:00;;;;;;;;;;;;;;;20.03;43.54;103761.16;5046987;28;2830;-65
2023/02/08 07:19:27;;;;;;;;;;;;;;;20.02;43.75;103764.59;5050087;28;1790;-65
2023/02/08 07:22:01;;;;;;;;;;;;;;;20.01;43.76;103752.31;5049902;28;2946;-65
2023/02/08 07:24:28;;;;;;;;;;;;;;;20.01;43.58;103757.31;5052601;28;3063;-66
2023/02/08 07:26:54;;;;;;;;;;;;;;;20.02;44.07;103762.50;5049984;28;3144;-70
2023/02/08 07:29:21;;;;;;;;;;;;;;;20.08;43.80;103757.28;5051556;28;2596;-68
2023/02/08 07:31:47;;;;;;;;;;;;;;;20.09;43.76;103766.72;5053476;28;1743;-70
2023/02/08 07:34:15;;;;;;;;;;;;;;;20.12;43.67;103762.69;5053335;28;2501;-69
2023/02/08 07:36:42;;;;;;;;;;;;;;;20.13;43.70;103764.19;5051999;28;2833;-68
2023/02/08 07:39:08;;;;;;;;;;;;;;;20.15;43.46;103766.50;5057208;28;1782;-69
2023/02/08 07:41:34;;;;;;;;;;;;;;;20.16;43.51;103768.81;5050509;28;2825;-69
2023/02/08 07:44:01;;;;;;;;;;;;;;;20.19;43.56;103772.66;5058055;28;2838;-71
2023/02/08 07:46:27;;;;;;;;;;;;;;;20.19;43.35;103773.41;5051173;28;2985;-71
2023/02/08 07:48:53;;;;;;;;;;;;;;;20.20;43.54;103771.28;5057798;28;2708;-71
2023/02/08 07:51:20;;;;;;;;;;;;;;;20.20;43.42;103768.41;5052665;28;2937;-72
2023/02/08 07:53:46;;;;;;;;;;;;;;;20.20;43.21;103779.94;5055826;28;1569;-72
2023/02/08 07:56:12;;;;;;;;;;;;;;;20.19;43.14;103775.53;5054707;28;3064;-69
2023/02/08 07:58:39;;;;;;;;;;;;;;;20.16;43.01;103782.41;5053515;28;2761;-71
2023/02/08 08:01:05;;;;;;;;;;;;;;;20.15;41.64;103787.41;5053306;28;1597;-70
2023/02/08 08:03:47;;;;;;;;;;;;;;;20.16;41.47;103782.41;5055215;28;2348;-71
2023/02/08 08:06:14;;;;;;;;;;;;;;;20.15;40.99;103784.53;5055629;28;2817;-71
2023/02/08 08:08:41;;;;;;;;;;;;;;;20.15;41.09;103790.28;5053110;28;2667;-71
2023/02/08 08:11:07;;;;;;;;;;;;;;;20.14;40.24;103783.00;5054258;28;1792;-71
2023/02/08 08:13:33;;;;;;;;;;;;;;;20.16;40.57;103796.81;5053886;28;2830;-70
2023/02/08 08:16:00;;;;;;;;;;;;;;;20.15;40.42;103801.03;5054222;28;1646;-70
2023/02/08 08:18:26;;;;;;;;;;;;;;;20.15;39.70;103801.81;5054767;28;3159;-70
2023/02/08 08:20:52;;;;;;;;;;;;;;;20.14;39.78;103800.28;5049454;28;2747;-71
2023/02/08 08:23:19;;;;;;;;;;;;;;;20.07;41.23;103801.81;5048659;28;2877;-69
2023/02/08 08:25:45;;;;;;;;;;;;;;;20.02;41.18;103794.16;5054879;28;1851;-71
2023/02/08 08:28:12;;;;;;;;;;;;;;;19.95;40.48;103792.03;5052217;28;2878;-71
2023/02/08 08:30:41;;;;;;;;;;;;;;;19.99;39.62;103797.41;5049910;28;2152;-72
2023/02/08 08:33:07;;;;;;;;;;;;;;;19.97;39.68;103800.06;5053059;28;2747;-70
2023/02/08 08:35:34;;;;;;;;;;;;;;;19.99;37.83;103794.53;5047461;28;3425;-70
2023/02/08 08:38:00;;;;;;;;;;;;;;;20.05;37.40;103798.75;5053842;28;2812;-72
2023/02/08 08:40:27;;;;;;;;;;;;;;;20.08;37.83;103796.81;5052711;28;3180;-70
2023/02/08 08:42:53;;;;;;;;;;;;;;;20.11;38.18;103794.91;5049695;28;2820;-68
2023/02/08 08:45:19;;;;;;;;;;;;;;;20.12;38.42;103784.94;5053837;28;2763;-68
2023/02/08 08:47:46;;;;;;;;;;;;;;;20.11;38.53;103778.41;5046613;28;2710;-69
2023/02/08 08:50:12;;;;;;;;;;;;;;;20.13;38.86;103786.47;5053547;28;2601;-69
2023/02/08 08:52:39;;;;;;;;;;;;;;;20.12;38.81;103779.94;5052447;28;2758;-69
2023/02/08 08:55:05;;;;;;;;;;;;;;;20.14;39.22;103765.00;5052222;28;2944;-71
2023/02/08 08:57:32;;;;;;;;;;;;;;;20.15;39.28;103766.50;5054483;28;2747;-72
2023/02/08 08:59:58;;;;;;;;;;;;;;;20.15;39.27;103769.38;5053001;28;1725;-70
2023/02/08 09:02:24;;;;;;;;;;;;;;;20.15;39.46;103760.75;5054359;28;2949;-70
2023/02/08 09:04:51;;;;;;;;;;;;;;;20.15;39.41;103760.75;5054854;28;1719;-70
2023/02/08 09:07:17;;;;;;;;;;;;;;;20.17;39.41;103766.69;5055843;28;1816;-71
2023/02/08 09:09:46;;;;;;;;;;;;;;;20.16;39.46;103768.03;5054153;28;2866;-70
2023/02/08 09:12:14;;;;;;;;;;;;;;;20.16;39.48;103768.03;5045430;28;2790;-70
2023/02/08 09:14:41;;;;;;;;;;;;;;;20.15;39.65;103772.25;5050567;28;2470;-63
2023/02/08 09:17:07;;;;;;;;;;;;;;;20.19;39.52;103772.66;5053204;28;2742;-70
2023/02/08 09:19:33;;;;;;;;;;;;;;;20.12;40.08;103756.16;5050400;28;2489;-69
2023/02/08 09:22:00;;;;;;;;;;;;;;;20.09;40.06;103767.47;5051943;28;1613;-68
2023/02/08 09:24:26;;;;;;;;;;;;;;;20.12;40.02;103773.44;5051936;28;2425;-68
2023/02/08 09:26:52;;;;;;;;;;;;;;;20.14;39.81;103776.50;5048823;28;2309;-69
2023/02/08 09:29:19;;;;;;;;;;;;;;;20.15;39.85;103775.91;5056420;28;2119;-71
2023/02/08 09:31:45;;;;;;;;;;;;;;;20.17;39.96;103789.72;5057440;28;1835;-72
2023/02/08 09:34:12;;;;;;;;;;;;;;;20.17;40.02;103792.59;5059226;28;2424;-72
2023/02/08 09:36:38;;;;;;;;;;;;;;;20.18;40.14;103789.16;5051821;28;2721;-71
2023/02/08 09:39:06;;;;;;;;;;;;;;;20.18;40.07;103789.16;5057563;28;2821;-71
2023/02/08 09:41:53;;;;;;;;;;;;;;;20.19;40.34;103784.16;5055557;28;1909;-72
2023/02/08 09:44:26;;;;;;;;;;;;;;;20.21;40.28;103778.59;5057433;28;2808;-71
2023/02/08 09:46:55;;;;;;;;;;;;;;;20.20;40.28;103777.84;5060218;28;1619;-72
2023/02/08 09:49:23;;;;;;;;;;;;;;;20.22;40.19;103777.25;5053337;28;1619;-72
2023/02/08 09:51:53;;;;;;;;;;;;;;;20.23;40.26;103767.28;5056173;28;1729;-71
2023/02/08 09:54:24;;;;;;;;;;;;;;;20.22;40.32;103765.72;5060350;28;1665;-71
2023/02/08 09:56:51;;;;;;;;;;;;;;;20.22;40.47;103760.75;5056967;28;2833;-72
2023/02/08 09:59:20;;;;;;;;;;;;;;;20.22;40.34;103751.34;5054403;28;2755;-72
2023/02/08 10:01:47;;;;;;;;;;;;;;;20.20;40.51;103748.28;5054720;28;3010;-72
2023/02/08 10:04:31;;;;;;;;;;;;;;;20.18;40.51;103743.13;5055691;28;3334;-72
2023/02/08 10:06:57;;;;;;;;;;;;;;;20.09;40.59;103741.59;5053353;28;3020;-73
2023/02/08 10:09:24;;;;;;;;;;;;;;;20.00;40.90;103736.41;5052247;28;2812;-73
2023/02/08 10:11:53;;;;;;;;;;;;;;;19.85;39.24;103739.28;5051627;28;3278;-73
2023/02/08 10:14:26;;;;;;;;;;;;;;;19.76;37.85;103731.25;5049264;28;2706;-75
2023/02/08 10:17:17;;;;;;;;;;;;;;;19.87;38.05;103722.22;5053613;28;2729;-73
2023/02/08 10:19:54;;;;;;;;;;;;;;;19.98;37.30;103723.97;5051949;28;2710;-74
2023/02/08 10:22:23;;;;;;;;;;;;;;;20.03;37.58;103720.88;5053710;28;2956;-74
2023/02/08 10:24:54;;;;;;;;;;;;;;;20.06;37.42;103713.94;5054992;28;2737;-73
2023/02/08 10:27:36;;;;;;;;;;;;;;;20.06;37.72;103716.81;5053852;28;2797;-73
2023/02/08 10:30:19;;;;;;;;;;;;;;;20.09;37.94;103720.69;5061188;28;2722;-73
2023/02/08 10:32:50;;;;;;;;;;;;;;;20.09;38.16;103706.31;5049742;28;2849;-71
2023/02/08 10:35:35;;;;;;;;;;;;;;;20.11;38.37;103712.22;5052471;28;2814;-72
2023/02/08 10:38:10;;;;;;;;;;;;;;;20.09;38.41;103707.06;5051965;28;2972;-71
2023/02/08 10:40:37;;;;;;;;;;;;;;;20.11;38.50;103702.81;5064687;28;2789;-72
2023/02/08 10:43:14;;;;;;;;;;;;;;;20.09;38.77;103701.31;5050334;28;2816;-72
2023/02/08 10:45:47;;;;;;;;;;;;;;;20.10;38.92;103696.31;5051104;28;2785;-72
2023/02/08 10:48:14;;;;;;;;;;;;;;;20.11;39.03;103702.81;5056850;28;2984;-73
2023/02/08 10:50:41;;;;;;;;;;;;;;;20.12;39.10;103695.75;5054211;28;2705;-73
2023/02/08 10:53:11;;;;;;;;;;;;;;;20.14;39.11;103690.19;5054041;28;2876;-72
2023/02/08 10:55:38;;;;;;;;;;;;;;;20.15;39.44;103686.72;5050985;28;2883;-72
2023/02/08 10:58:04;;;;;;;;;;;;;;;20.16;39.49;103687.47;5050105;28;2811;-72
2023/02/08 11:00:33;;;;;;;;;;;;;;;20.16;39.59;103698.97;5054715;28;2830;-71
2023/02/08 11:03:00;;;;;;;;;;;;;;;20.16;39.66;103693.22;5050872;28;2718;-73
2023/02/08 11:05:36;;;;;;;;;;;;;;;20.15;39.72;103686.72;5051461;28;2741;-73
2023/02/08 11:08:03;;;;;;;;;;;;;;;20.14;39.79;103673.69;5055949;28;2804;-71
2023/02/08 11:10:29;;;;;;;;;;;;;;;20.14;39.80;103673.69;5053947;28;2779;-71
2023/02/08 11:12:56;;;;;;;;;;;;;;;20.14;39.78;103673.69;5055592;28;2782;-72
2023/02/08 11:15:23;;;;;;;;;;;;;;;20.14;39.92;103675.78;5048416;28;2890;-65
2023/02/08 11:17:53;;;;;;;;;;;;;;;20.13;40.11;103675.00;5055944;28;2895;-67
2023/02/08 11:20:21;;;;;;;;;;;;;;;20.11;40.27;103665.44;5058713;28;1668;-68
2023/02/08 11:22:47;;;;;;;;;;;;;;;20.09;40.39;103661.03;5053012;28;2866;-67
2023/02/08 11:25:29;;;;;;;;;;;;;;;20.13;40.33;103666.38;5055728;28;1729;-70
2023/02/08 11:27:55;;;;;;;;;;;;;;;20.12;40.29;103670.59;5057356;28;1819;-74
2023/02/08 11:30:22;;;;;;;;;;;;;;;20.20;40.26;103670.59;5058390;28;1863;-75
2023/02/08 11:32:49;;;;;;;;;;;;;;;20.27;40.27;103669.78;5059359;28;1590;-73
2023/02/08 11:35:20;;;;;;;;;;;;;;;20.33;40.13;103666.72;5054233;28;2829;-69
2023/02/08 11:37:47;;;;;;;;;;;;;;;20.33;40.45;103670.34;5053162;28;2940;-67
2023/02/08 11:40:39;;;;;;;;;;;;;;;20.30;40.35;103662.91;5054427;28;2881;-67
2023/02/08 11:43:06;;;;;;;;;;;;;;;20.25;40.46;103666.75;5048927;28;2715;-67
2023/02/08 11:45:33;;;;;;;;;;;;;;;20.24;40.47;103659.44;5054707;28;2877;-67
2023/02/08 11:48:06;;;;;;;;;;;;;;;20.22;40.50;103667.88;5053443;28;2860;-68
2023/02/08 11:50:33;;;;;;;;;;;;;;;20.20;40.43;103654.09;5052223;28;2807;-67
2023/02/08 11:53:00;;;;;;;;;;;;;;;20.20;40.38;103659.06;5053214;28;2627;-68
2023/02/08 11:55:27;;;;;;;;;;;;;;;20.21;40.48;103658.50;5055478;28;2307;-68
2023/02/08 11:57:59;;;;;;;;;;;;;;;20.21;40.52;103658.50;5050096;28;3319;-68
2023/02/08 12:00:26;;;;;;;;;;;;;;;20.23;40.45;103652.19;5053488;28;2908;-68
2023/02/08 12:02:55;;;;;;;;;;;;;;;20.24;40.48;103659.44;5056247;28;3056;-68
2023/02/08 12:05:23;;;;;;;;;;;;;;;20.35;40.35;103656.16;5053519;28;1600;-70
2023/02/08 12:08:04;;;;;;;;;;;;;;;20.34;40.38;103657.50;5052998;28;2835;-71
2023/02/08 12:10:49;;;;;;;;;;;;;;;20.32;40.30;103654.44;5051902;28;1822;-71
2023/02/08 12:13:22;;;;;;;;;;;;;;;20.35;40.25;103659.03;5056042;28;1796;-71
2023/02/08 12:15:55;;;;;;;;;;;;;;;20.35;40.50;103653.28;5054903;28;1857;-71
2023/02/08 12:18:33;;;;;;;;;;;;;;;20.34;40.47;103651.75;5053194;28;1973;-70
2023/02/08 12:21:03;;;;;;;;;;;;;;;20.33;40.85;103655.97;5054001;28;1637;-70
2023/02/08 12:23:42;;;;;;;;;;;;;;;20.31;41.21;103658.66;5053078;28;1794;-71
2023/02/08 12:26:27;;;;;;;;;;;;;;;20.34;41.11;103657.50;5052583;28;1670;-66
2023/02/08 12:29:06;;;;;;;;;;;;;;;20.31;41.17;103661.53;5051571;28;2554;-66
2023/02/08 12:31:37;;;;;;;;;;;;;;;20.29;41.24;103669.97;5052912;28;3119;-66
2023/02/08 12:34:06;;;;;;;;;;;;;;;20.18;40.94;103673.28;5052794;28;1581;-69
2023/02/08 12:36:42;;;;;;;;;;;;;;;20.24;40.11;103673.84;5054363;28;1859;-69
2023/02/08 12:42:30;;;;;;;;;;;;;;;20.31;40.78;103673.03;5051870;28;1538;-69
2023/02/08 12:45:08;;;;;;;;;;;;;;;20.33;40.86;103669.59;5052250;28;1646;-68
2023/02/08 12:47:53;;;;;;;;;;;;;;;20.35;41.00;103667.66;5055919;28;1825;-68
2023/02/08 12:50:34;;;;;;;;;;;;;;;20.36;41.06;103654.03;5054661;28;1892;-68
2023/02/08 12:53:02;;;;;;;;;;;;;;;20.37;41.52;103659.22;5050697;28;1720;-68
2023/02/08 12:55:35;;;;;;;;;;;;;;;20.38;41.56;103663.63;5051195;28;1708;-68
2023/02/08 12:58:20;;;;;;;;;;;;;;;20.39;41.68;103658.66;5051563;28;1971;-68
2023/02/08 13:00:46;;;;;;;;;;;;;;;20.39;41.74;103650.78;5054499;28;1636;-68
2023/02/08 13:03:21;;;;;;;;;;;;;;;20.39;41.98;103650.78;5053690;28;1685;-68
2023/02/08 13:05:48;;;;;;;;;;;;;;;20.40;41.71;103649.41;5051056;28;1811;-68
2023/02/08 13:08:28;;;;;;;;;;;;;;;20.41;41.88;103635.78;5054584;28;1712;-68
2023/02/08 13:10:57;;;;;;;;;;;;;;;20.41;41.93;103645.19;5048683;28;1854;-68
2023/02/08 13:13:36;;;;;;;;;;;;;;;20.42;41.90;103649.59;5060117;28;1768;-68
2023/02/08 13:16:08;;;;;;;;;;;;;;;20.43;41.88;103641.72;5049232;28;1679;-69
2023/02/08 13:18:45;;;;;;;;;;;;;;;20.45;41.80;103634.03;5057286;28;2065;-68
2023/02/08 13:21:12;;;;;;;;;;;;;;;20.47;41.88;103625.56;5057538;28;1572;-68
2023/02/08 13:23:43;;;;;;;;;;;;;;;20.48;42.08;103624.25;5054362;28;1835;-68
2023/02/08 13:26:19;;;;;;;;;;;;;;;20.47;41.94;103619.06;5056050;28;1756;-68
2023/02/08 13:28:46;;;;;;;;;;;;;;;20.49;42.21;103611.38;5055499;28;1681;-67
2023/02/08 13:31:14;;;;;;;;;;;;;;;20.49;42.50;103617.13;5054916;28;1659;-67
2023/02/08 13:33:48;;;;;;;;;;;;;;;20.49;42.43;103625.75;5051599;28;1830;-67
2023/02/08 13:36:36;;;;;;;;;;;;;;;20.48;42.54;103621.38;5055594;28;1746;-65
2023/02/08 13:39:03;;;;;;;;;;;;;;;20.48;42.34;103609.84;5051629;28;1964;-65
2023/02/08 13:41:30;;;;;;;;;;;;;;;20.46;42.67;103603.91;5059487;28;1820;-65
2023/02/08 13:43:57;;;;;;;;;;;;;;;20.46;42.45;103601.03;5048757;28;1712;-66
2023/02/08 13:46:24;;;;;;;;;;;;;;;20.46;42.60;103601.03;5055933;28;1796;-65
2023/02/08 13:48:52;;;;;;;;;;;;;;;20.46;42.75;103595.28;5055523;28;1598;-65